Data for 02/20/2010

Time Sea-Level Adjusted Pressure Absolute Pressure Temperature Relative Humidity Dew Point   
(mb) (inHg) (mb) (inHg) (C) (F) (%) (C) (F)
00:05 1016 30 846 24.98 -9.5 14.8 86 -11.4 11.4
00:10 1016 30 846 24.98 -9.6 14.7 87 -11.5 11.4
00:15 1016 30 846 24.98 -9.7 14.6 88 -11.3 11.6
00:20 1016 30 846 24.98 -9.6 14.7 87 -11.4 11.4
00:25 1016 30 846 24.98 -9.6 14.7 87 -11.3 11.6
00:30 1016 30 846 24.98 -9.6 14.8 87 -11.3 11.6
00:35 1016 30 846 24.98 -9.4 15 86 -11.3 11.6
00:40 1016 30 845 24.95 -9.4 15.1 84 -11.6 11.1
00:45 1016 30 845 24.95 -9.7 14.5 85 -11.8 10.7
00:50 1016 30 845 24.95 -9.8 14.3 85 -12 10.4
00:55 1016 30 845 24.95 -9.8 14.3 85 -11.9 10.5
01:00 1016 30 845 24.95 -9.9 14.3 84 -12 10.4
01:05 1016 30 845 24.95 -10 14.1 84 -12.1 10.2
01:10 1016 30 845 24.95 -10 14.1 84 -12.2 10.1
01:15 1016 30 845 24.95 -10 14.1 85 -12.1 10.2
01:20 1016 30 845 24.95 -9.9 14.2 85 -12 10.4
01:25 1016 30 845 24.95 -9.8 14.3 85 -11.9 10.6
01:30 1016 30 845 24.95 -9.8 14.3 84 -12 10.5
01:35 1016 30 845 24.95 -9.9 14.2 84 -12.1 10.3
01:40 1016 30 845 24.95 -9.9 14.2 84 -12.1 10.2
01:45 1016 30 845 24.95 -9.9 14.3 84 -12 10.4
01:50 1016 30 845 24.95 -9.8 14.4 84 -12 10.5
01:55 1016 30 845 24.95 -9.7 14.5 84 -12 10.4
02:00 1016 30 845 24.95 -9.8 14.4 84 -12 10.4
02:05 1016 30 845 24.95 -9.8 14.4 85 -11.9 10.7
02:10 1016 30 845 24.95 -9.8 14.5 84 -11.9 10.5
02:15 1016 30 845 24.95 -9.8 14.3 85 -11.9 10.6
02:20 1016 30 845 24.95 -9.9 14.2 85 -11.9 10.6
02:25 1016 30 845 24.95 -9.9 14.2 86 -11.8 10.7
02:30 1016 30 845 24.95 -9.8 14.3 86 -11.8 10.8
02:35 1016 30 845 24.95 -9.9 14.2 86 -11.8 10.8
02:40 1016 30 845 24.95 -9.9 14.2 86 -11.9 10.6
02:45 1016 30 845 24.95 -9.9 14.2 85 -11.9 10.6
02:50 1016 30 845 24.95 -9.9 14.2 86 -11.9 10.7
02:55 1016 30 845 24.95 -9.9 14.2 86 -11.8 10.7
03:00 1016 30 845 24.95 -10 14.1 86 -11.9 10.6
03:05 1016 30 845 24.95 -10 14 86 -11.9 10.6
03:10 1016 30 845 24.95 -10 13.9 86 -11.9 10.6
03:15 1016 30 845 24.95 -10 14 87 -11.8 10.8
03:20 1016 30 845 24.95 -10.1 13.8 87 -11.9 10.6
03:25 1016 30 845 24.95 -10.2 13.7 87 -12 10.4
03:30 1016 30 845 24.95 -10.3 13.5 87 -12.1 10.3
03:35 1016 30 845 24.95 -10.3 13.4 87 -12.2 10.1
03:40 1016 30 845 24.95 -10.4 13.4 87 -12.2 10
03:45 1016 30 845 24.95 -10.3 13.5 86 -12.1 10.2
03:50 1016 30 845 24.95 -10.2 13.6 86 -12.1 10.2
03:55 1016 30 845 24.95 -10.2 13.6 86 -12.1 10.2
04:00 1016 30 845 24.95 -10.2 13.6 86 -12.2 10.1
04:05 1016 30 845 24.95 -10.3 13.5 86 -12.3 9.9
04:10 1016 30 845 24.95 -10.3 13.4 86 -12.2 10
04:15 1016 30 845 24.95 -10.2 13.6 85 -12.2 10
04:20 1016 30 845 24.95 -10.2 13.6 85 -12.3 9.9
04:25 1016 30 845 24.95 -10.2 13.7 85 -12.2 10
04:30 1016 30 845 24.95 -10.1 13.8 85 -12.2 10
04:35 1016 30 845 24.95 -10.1 13.8 85 -12.2 10.1
04:40 1016 30 845 24.95 -10.1 13.8 85 -12.2 10
04:45 1015 29.97 845 24.95 -10.2 13.7 84 -12.4 9.7
04:50 1015 29.97 845 24.95 -10.3 13.5 84 -12.5 9.6
04:55 1015 29.97 845 24.95 -10.3 13.4 84 -12.5 9.5
05:00 1015 29.97 845 24.95 -10.4 13.4 84 -12.5 9.4
05:05 1015 29.97 845 24.95 -10.5 13.1 84 -12.6 9.3
05:10 1015 29.97 845 24.95 -10.5 13.1 84 -12.7 9.1
05:15 1015 29.97 845 24.95 -10.4 13.2 83 -12.8 9
05:20 1015 29.97 845 24.95 -10.4 13.2 83 -12.8 8.9
05:25 1015 29.97 845 24.95 -10.5 13.2 83 -12.8 9
05:30 1015 29.97 845 24.95 -10.5 13.1 82 -13 8.7
05:35 1015 29.97 845 24.95 -10.6 12.9 83 -13 8.6
05:40 1015 29.97 845 24.95 -10.6 12.9 83 -13 8.5
05:45 1015 29.97 845 24.95 -10.6 12.9 82 -13.1 8.4
05:50 1015 29.97 845 24.95 -10.7 12.7 83 -13.1 8.4
05:55 1015 29.97 845 24.95 -10.8 12.5 82 -13.3 8
06:00 1016 30 845 24.95 -10.9 12.4 83 -13.3 8.1
06:05 1016 30 845 24.95 -10.9 12.4 82 -13.4 7.9
06:10 1016 30 845 24.95 -10.8 12.6 81 -13.4 7.9
06:15 1016 30 845 24.95 -10.7 12.8 81 -13.3 8
06:20 1016 30 845 24.95 -10.7 12.8 80 -13.4 7.9
06:25 1016 30 845 24.95 -10.6 12.9 80 -13.5 7.8
06:30 1016 30 845 24.95 -10.6 12.9 81 -13.3 8
06:35 1016 30 845 24.95 -10.7 12.8 80 -13.5 7.8
06:40 1016 30 845 24.95 -10.8 12.6 82 -13.4 8
06:45 1016 30 845 24.95 -10.8 12.5 81 -13.5 7.8
06:50 1016 30 845 24.95 -10.8 12.5 82 -13.4 7.9
06:55 1016 30 845 24.95 -10.8 12.5 82 -13.3 8.1
07:00 1016 30 845 24.95 -10.6 12.9 82 -13.2 8.3
07:05 1016 30 845 24.95 -10.4 13.2 81 -13 8.6
07:10 1016 30 845 24.95 -10.6 13 81 -13.2 8.3
07:15 1016 30 845 24.95 -10.7 12.7 82 -13.2 8.2
07:20 1016 30 845 24.95 -10.8 12.5 82 -13.3 8
07:25 1016 30 845 24.95 -10.9 12.3 85 -13 8.5
07:30 1016 30 845 24.95 -11 12.3 85 -13 8.5
07:35 1016 30 845 24.95 -10.9 12.4 85 -13 8.6
07:40 1016 30 845 24.95 -10.8 12.6 84 -12.9 8.8
07:45 1016 30 845 24.95 -10.8 12.6 84 -12.9 8.7
07:50 1016 30 845 24.95 -10.7 12.7 84 -12.9 8.7
07:55 1016 30 845 24.95 -10.5 13 83 -12.9 8.7
08:00 1016 30 845 24.95 -10.5 13.2 82 -12.9 8.7
08:05 1016 30 845 24.95 -10.5 13 83 -12.9 8.7
08:10 1016 30 845 24.95 -10.4 13.3 82 -12.9 8.7
08:15 1016 30 845 24.95 -10.4 13.3 83 -12.7 9.1
08:20 1016 30 845 24.95 -10.2 13.6 82 -12.7 9.1
08:25 1016 30 845 24.95 -10.1 13.8 82 -12.7 9.1
08:30 1016 30 845 24.95 -9.9 14.2 81 -12.6 9.4
08:35 1016 30 845 24.95 -9.8 14.5 81 -12.4 9.7
08:40 1016 30 845 24.95 -9.4 15.2 79 -12.4 9.8
08:45 1016 30 845 24.95 -8.9 16.1 77 -12.1 10.2
08:50 1016 30 845 24.95 -8.4 16.8 75 -12.1 10.2
08:55 1016 30 845 24.95 -8.3 17.1 72 -12.5 9.6
09:00 1016 30 845 24.95 -8.2 17.2 72 -12.4 9.7
09:05 1016 30 845 24.95 -8.2 17.3 72 -12.4 9.6
09:10 1016 30 845 24.95 -8.7 16.3 75 -12.4 9.7
09:15 1016 30 845 24.95 -8.3 17 74 -12.2 10
09:20 1016 30 845 24.95 -7.2 19.1 68 -12.1 10.2
09:25 1016 30 845 24.95 -7.4 18.7 70 -12 10.4
09:30 1016 30 845 24.95 -7.8 17.9 71 -12.2 10.1
09:35 1016 30 845 24.95 -7.7 18.2 71 -12.1 10.3
09:40 1016 30 845 24.95 -7 19.5 70 -11.5 11.3
09:45 1016 30 845 24.95 -6.8 19.8 68 -11.8 10.8
09:50 1016 30 845 24.95 -6.4 20.5 67 -11.6 11.1
09:55 1016 30 845 24.95 -5.9 21.4 66 -11.2 11.8
10:00 1016 30 845 24.95 -5.9 21.4 67 -11.1 12
10:05 1016 30 845 24.95 -5.7 21.8 66 -11 12.2
10:10 1016 30 845 24.95 -5.5 22.2 67 -10.7 12.8
10:15 1016 30 845 24.95 -5.5 22.1 67 -10.7 12.7
10:20 1016 30 845 24.95 -5.1 22.8 65 -10.6 12.9
10:25 1016 30 845 24.95 -4.9 23.1 65 -10.6 12.9
10:30 1016 30 845 24.95 -5.4 22.3 67 -10.5 13.1
10:35 1016 30 845 24.95 -5.3 22.5 68 -10.3 13.4
10:40 1016 30 845 24.95 -4.9 23.3 64 -10.6 12.9
10:45 1016 30 845 24.95 -4.5 23.9 65 -10.1 13.7
10:50 1016 30 845 24.95 -5 23 66 -10.4 13.2
10:55 1016 30 845 24.95 -5.2 22.6 67 -10.4 13.3
11:00 1016 30 845 24.95 -4.9 23.1 66 -10.3 13.4
11:05 1016 30 845 24.95 -4.4 24.1 64 -10.2 13.7
11:10 1016 30 845 24.95 -4.5 23.9 68 -9.6 14.8
11:15 1016 30 845 24.95 -3.3 26.1 59 -10.1 13.8
11:20 1016 30 845 24.95 -2.7 27.2 59 -9.5 14.8
11:25 1016 30 845 24.95 -2.5 27.5 57 -9.9 14.2
11:30 1016 30 845 24.95 -2.6 27.4 59 -9.5 14.9
11:35 1016 30 845 24.95 -3.4 26 60 -10 14.1
11:40 1016 30 845 24.95 -4.2 24.4 65 -9.7 14.5
11:45 1016 30 845 24.95 -5.1 22.9 69 -10 14
11:50 1016 30 845 24.95 -4.4 24.1 70 -9 15.7
11:55 1016 30 845 24.95 -5.4 22.3 77 -8.9 16
12:00 1016 30 845 24.95 -5.3 22.4 76 -8.9 15.9
12:05 1016 30 845 24.95 -4.6 23.8 73 -8.8 16.2
12:10 1016 30 845 24.95 -5 23 73 -9.1 15.5
12:15 1016 30 845 24.95 -5.6 22 78 -8.9 16
12:20 1016 30 845 24.95 -5.2 22.7 75 -8.9 16
12:25 1015 29.97 845 24.95 -4.8 23.3 73 -8.9 16
12:30 1015 29.97 845 24.95 -4.4 24.1 71 -8.8 16.1
12:35 1015 29.97 845 24.95 -4.1 24.6 70 -8.8 16.1
12:40 1015 29.97 845 24.95 -4.4 24 71 -9 15.8
12:45 1015 29.97 845 24.95 -4.5 23.8 72 -8.9 15.9
12:50 1015 29.97 845 24.95 -5.3 22.4 74 -9.2 15.5
12:55 1015 29.97 844 24.92 -4.8 23.3 74 -8.8 16.2
13:00 1015 29.97 844 24.92 -4.7 23.5 72 -9 15.8
13:05 1015 29.97 844 24.92 -5.1 22.9 74 -9 15.7
13:10 1015 29.97 844 24.92 -5.2 22.6 78 -8.5 16.7
13:15 1015 29.97 844 24.92 -5.7 21.7 77 -9.1 15.7
13:20 1015 29.97 844 24.92 -6 21.3 78 -9.3 15.3
13:25 1015 29.97 844 24.92 -6.2 20.8 79 -9.3 15.3
13:30 1015 29.97 844 24.92 -5.7 21.8 77 -9 15.8
13:35 1015 29.97 844 24.92 -5.2 22.6 72 -9.4 15
13:40 1015 29.97 844 24.92 -5.1 22.8 74 -9.1 15.6
13:45 1015 29.97 844 24.92 -5.1 22.8 75 -8.9 16
13:50 1015 29.97 844 24.92 -5.1 22.7 74 -9.1 15.5
13:55 1015 29.97 844 24.92 -5.3 22.5 74 -9.3 15.3
14:00 1015 29.97 844 24.92 -5.3 22.4 79 -8.5 16.7
14:05 1015 29.97 844 24.92 -5.1 22.8 74 -9.1 15.6
14:10 1015 29.97 844 24.92 -4.8 23.4 75 -8.6 16.6
14:15 1015 29.97 844 24.92 -4.2 24.4 70 -8.9 16
14:20 1015 29.97 844 24.92 -4 24.8 71 -8.6 16.6
14:25 1015 29.97 844 24.92 -4.1 24.6 70 -8.8 16.1
14:30 1015 29.97 844 24.92 -2.9 26.7 65 -8.7 16.3
14:35 1015 29.97 844 24.92 -3.3 26 69 -8.2 17.2
14:40 1015 29.97 844 24.92 -5.6 22 77 -8.9 15.9
14:45 1015 29.97 844 24.92 -5.8 21.5 76 -9.5 14.9
14:50 1015 29.97 844 24.92 -5.8 21.5 77 -9.2 15.4
14:55 1015 29.97 844 24.92 -5.5 22.2 74 -9.5 15
15:00 1015 29.97 844 24.92 -5.4 22.3 74 -9.3 15.3
15:05 1015 29.97 844 24.92 -5.1 22.8 70 -9.7 14.5
15:10 1015 29.97 844 24.92 -4.8 23.4 67 -10 14
15:15 1015 29.97 844 24.92 -4.3 24.3 65 -10 14
15:20 1015 29.97 844 24.92 -3.7 25.4 63 -9.7 14.5
15:25 1015 29.97 844 24.92 -3.6 25.5 65 -9.3 15.3
15:30 1015 29.97 844 24.92 -4.8 23.3 68 -9.8 14.3
15:35 1015 29.97 844 24.92 -5.3 22.4 71 -9.8 14.3
15:40 1015 29.97 844 24.92 -5.6 21.9 71 -10.1 13.8
15:45 1015 29.97 844 24.92 -5.7 21.8 71 -10.1 13.9
15:50 1015 29.97 844 24.92 -5.7 21.7 71 -10.2 13.7
15:55 1015 29.97 844 24.92 -5.1 22.7 69 -10 14
16:00 1015 29.97 844 24.92 -5.1 22.8 71 -9.7 14.6
16:05 1015 29.97 844 24.92 -4.8 23.4 68 -9.9 14.2
16:10 1015 29.97 844 24.92 -4.8 23.4 69 -9.6 14.6
16:15 1015 29.97 844 24.92 -5.4 22.4 71 -9.7 14.5
16:20 1015 29.97 844 24.92 -5.7 21.7 73 -9.8 14.4
16:25 1015 29.97 844 24.92 -5.8 21.6 75 -9.5 14.8
16:30 1015 29.97 844 24.92 -5.8 21.5 76 -9.3 15.2
16:35 1015 29.97 844 24.92 -5.7 21.8 75 -9.4 15
16:40 1015 29.97 844 24.92 -5.5 22.1 74 -9.4 15
16:45 1015 29.97 844 24.92 -5.4 22.2 73 -9.6 14.7
16:50 1015 29.97 844 24.92 -5.2 22.6 72 -9.6 14.8
16:55 1015 29.97 844 24.92 -5.1 22.8 70 -9.7 14.5
17:00 1015 29.97 844 24.92 -5.2 22.6 72 -9.6 14.8
17:05 1015 29.97 844 24.92 -5.2 22.6 71 -9.6 14.6
17:10 1015 29.97 844 24.92 -5.3 22.5 72 -9.6 14.7
17:15 1015 29.97 844 24.92 -5.7 21.8 76 -9.3 15.2
17:20 1015 29.97 844 24.92 -6.2 20.8 77 -9.6 14.7
17:25 1015 29.97 844 24.92 -6.5 20.4 76 -10 14
17:30 1015 29.97 844 24.92 -6.5 20.3 77 -10 14.1
17:35 1015 29.97 844 24.92 -6.6 20.2 78 -9.9 14.2
17:40 1015 29.97 844 24.92 -6.6 20.1 77 -10 13.9
17:45 1015 29.97 845 24.95 -6.6 20.1 76 -10.1 13.8
17:50 1015 29.97 845 24.95 -6.6 20.2 75 -10.2 13.6
17:55 1015 29.97 845 24.95 -6.4 20.5 76 -10 14
18:00 1016 30 845 24.95 -6.3 20.7 76 -9.9 14.3
18:05 1016 30 845 24.95 -6.5 20.2 78 -9.7 14.5
18:10 1016 30 845 24.95 -6.7 19.9 81 -9.4 15.1
18:15 1016 30 845 24.95 -7 19.3 86 -9 15.7
18:20 1016 30 845 24.95 -7.1 19.2 87 -8.9 16
18:25 1016 30 845 24.95 -7.4 18.7 89 -8.9 16.1
18:30 1016 30 845 24.95 -7.5 18.5 90 -8.8 16.1
18:35 1016 30 845 24.95 -7.4 18.7 90 -8.7 16.3
18:40 1016 30 845 24.95 -7.3 18.9 91 -8.6 16.6
18:45 1016 30 845 24.95 -7.1 19.2 89 -8.6 16.5
18:50 1016 30 845 24.95 -7.1 19.3 89 -8.6 16.4
18:55 1016 30 845 24.95 -7 19.4 88 -8.7 16.4
19:00 1016 30 845 24.95 -6.9 19.6 87 -8.7 16.4
19:05 1016 30 845 24.95 -6.8 19.7 85 -8.9 15.9
19:10 1016 30 845 24.95 -7 19.4 86 -8.9 15.9
19:15 1016 30 845 24.95 -7.3 18.9 88 -8.9 16
19:20 1016 30 845 24.95 -7.4 18.7 88 -9 15.8
19:25 1016 30 845 24.95 -7.4 18.7 87 -9.3 15.3
19:30 1016 30 845 24.95 -7.2 19 86 -9.2 15.5
19:35 1016 30 845 24.95 -7.4 18.8 86 -9.2 15.4
19:40 1016 30 845 24.95 -7.4 18.6 83 -9.8 14.3
19:45 1016 30 845 24.95 -7.4 18.6 76 -11 12.2
19:50 1016 30 845 24.95 -7.4 18.6 74 -11.3 11.7
19:55 1016 30 845 24.95 -7.4 18.7 73 -11.5 11.3
20:00 1016 30 845 24.95 -7.5 18.6 73 -11.6 11.2
20:05 1016 30 845 24.95 -7.5 18.5 73 -11.6 11.2
20:10 1016 30 845 24.95 -7.6 18.4 73 -11.6 11.1
20:15 1016 30 845 24.95 -7.5 18.4 72 -11.8 10.8
20:20 1016 30 845 24.95 -7.5 18.6 71 -11.8 10.7
20:25 1016 30 845 24.95 -7.5 18.6 71 -11.9 10.6
20:30 1016 30 845 24.95 -7.4 18.7 70 -12 10.4
20:35 1016 30 845 24.95 -7.4 18.7 71 -11.8 10.7
20:40 1016 30 845 24.95 -7.4 18.7 70 -11.9 10.6
20:45 1016 30 845 24.95 -7.4 18.7 69 -12.2 10.1
20:50 1016 30 845 24.95 -7.4 18.7 69 -12.1 10.2
20:55 1016 30 845 24.95 -7.5 18.6 72 -11.6 11.1
21:00 1016 30 845 24.95 -7.6 18.2 75 -11.3 11.7
21:05 1016 30 845 24.95 -7.8 18 76 -11.2 11.8
21:10 1016 30 845 24.95 -7.9 17.9 77 -11.2 11.8
21:15 1016 30 845 24.95 -7.9 17.8 77 -11.3 11.7
21:20 1016 30 845 24.95 -8 17.6 77 -11.4 11.4
21:25 1016 30 845 24.95 -8.1 17.4 76 -11.6 11.2
21:30 1016 30 845 24.95 -8.2 17.3 77 -11.6 11.1
21:35 1016 30 845 24.95 -8.2 17.2 77 -11.5 11.2
21:40 1016 30 845 24.95 -8.3 17 76 -11.8 10.8
21:45 1016 30 845 24.95 -8.4 16.8 77 -11.8 10.7
21:50 1016 30 845 24.95 -8.5 16.8 76 -11.9 10.6
21:55 1016 30 845 24.95 -8.6 16.4 76 -12.1 10.3
22:00 1016 30 845 24.95 -8.8 16.2 77 -12.1 10.1
22:05 1016 30 845 24.95 -8.8 16.2 77 -12.1 10.2
22:10 1016 30 845 24.95 -8.7 16.3 77 -12 10.3
22:15 1016 30 845 24.95 -8.8 16.3 78 -12 10.4
22:20 1016 30 845 24.95 -8.8 16.1 78 -12 10.4
22:25 1016 30 845 24.95 -8.9 15.9 78 -12.1 10.3
22:30 1016 30 845 24.95 -8.9 15.9 78 -12.1 10.2
22:35 1016 30 845 24.95 -8.9 15.9 78 -12.1 10.2
22:40 1016 30 845 24.95 -9.1 15.7 78 -12.2 10.1
22:45 1016 30 845 24.95 -9.1 15.6 78 -12.2 10
22:50 1016 30 845 24.95 -9.1 15.6 78 -12.3 9.9
22:55 1016 30 845 24.95 -9.2 15.5 78 -12.3 9.9
23:00 1016 30 845 24.95 -9.2 15.4 78 -12.3 9.8
23:05 1016 30 845 24.95 -9.3 15.4 78 -12.3 9.8
23:10 1016 30 845 24.95 -9.4 15.2 78 -12.5 9.6
23:15 1016 30 845 24.95 -9.4 15.1 78 -12.5 9.5
23:20 1016 30 845 24.95 -9.5 14.9 78 -12.6 9.3
23:25 1016 30 845 24.95 -9.6 14.8 78 -12.7 9.1
23:30 1016 30 845 24.95 -9.5 14.8 78 -12.6 9.2
23:35 1016 30 845 24.95 -9.6 14.8 79 -12.6 9.3
23:40 1016 30 845 24.95 -9.5 15 78 -12.6 9.3
23:45 1016 30 845 24.95 -9.3 15.2 78 -12.6 9.4
23:50 1016 30 845 24.95 -9.3 15.3 77 -12.6 9.4
23:55 1016 30 845 24.95 -9.2 15.4 77 -12.5 9.5
24:00 1016 30 845 24.95 -9.2 15.5 77 -12.5 9.5